Latest Weather Observations for Wadeye (Port Keats)

IDD60801

Issued at 5:35 pm CST Wednesday 1 October 2014 (issued every 30 minutes, with the page automatically refreshed every 10 minutes)

About weather observations | Map of weather stations | Latest weather observations for NT | Other Formats
Station Details ID: 014948 Name: PORT KEATS AIRPORT Lat: -14.25 Lon: 129.53 Height: 28.0 m
Data from the previous 72 hours. | See also: Recent months at Wadeye (Port Keats)
Date/Time
CST
Temp
°C
App
Temp
°C
Dew
Point
Rel
Hum
%
Delta-T
°C
Wind Press
QNH
hPa
Press
MSL
hPa
Rain
since 9 am
mm
Dir
 
Spd
km/h
Gust
km/h
Spd
kts
Gust
kts
01/05:30pm 29.8 31.0 20.6 57 6.1 W 15 22 8 12 1009.7 1009.5 0.0
01/05:00pm 29.4 29.5 20.0 57 6.2 W 19 26 10 14 1009.4 1009.2 0.0
01/04:30pm 30.2 31.0 20.7 56 6.3 W 17 24 9 13 1009.5 1009.3 0.0
01/04:00pm 30.2 31.3 21.3 59 6.0 W 17 26 9 14 1010.0 1009.8 0.0
01/03:30pm 30.4 31.1 21.2 58 6.2 WSW 19 28 10 15 1010.2 1010.0 0.0
01/03:00pm 29.2 30.2 21.7 64 5.0 WSW 19 28 10 15 1010.5 1010.3 0.0
01/02:30pm 30.1 30.8 21.5 60 5.8 WSW 20 28 11 15 1010.8 1010.6 0.0
01/02:00pm 30.2 30.5 20.4 55 6.5 W 19 26 10 14 1011.2 1011.0 0.0
01/01:30pm 29.4 30.7 20.8 60 5.7 WNW 15 24 8 13 1011.9 1011.7 0.0
01/01:00pm 30.2 31.4 20.7 56 6.3 W 15 28 8 15 1012.4 1012.2 0.0
01/12:30pm 31.5 32.0 19.2 48 8.0 NW 15 22 8 12 1013.0 1012.8 0.0
01/12:00pm 30.8 31.7 20.1 53 7.1 NW 15 28 8 15 1013.8 1013.6 0.0
01/11:30am 29.6 30.6 20.2 57 6.2 NNW 15 20 8 11 1014.4 1014.2 0.0
01/11:00am 30.1 31.9 20.4 56 6.4 NW 11 17 6 9 1014.7 1014.5 0.0
01/10:30am 29.2 30.9 20.9 61 5.5 NW 13 20 7 11 1015.1 1014.9 0.0
01/10:00am 29.3 32.3 21.3 62 5.4 NNW 7 13 4 7 1015.1 1014.9 0.0
01/09:30am 29.4 31.6 21.1 61 5.5 N 11 17 6 9 1015.0 1014.8 0.0
01/09:00am 28.0 30.9 21.1 66 4.6 N 7 11 4 6 1014.8 1014.6 0.0
01/08:30am 27.6 31.4 21.6 70 4.0 NW 4 9 2 5 1014.6 1014.4 0.0
01/08:00am 26.0 30.6 21.7 77 2.9 CALM 0 0 0 0 1014.3 1014.1 0.0
01/07:30am 24.3 27.8 21.8 86 1.7 SE 6 9 3 5 1014.0 1013.8 0.0
01/07:00am 23.0 27.4 21.4 91 1.1 CALM 0 0 0 0 1013.5 1013.3 0.0
01/06:30am 22.3 26.3 20.6 90 1.1 CALM 0 0 0 0 1013.2 1013.0 0.0
01/06:00am 22.8 27.0 20.9 89 1.2 SE 0 0 0 0 1013.0 1012.8 0.0
01/05:30am 23.5 27.8 21.2 87 1.5 CALM 0 0 0 0 1012.7 1012.5 0.0
01/05:00am 23.5 26.2 21.4 88 1.4 E 9 11 5 6 1012.6 1012.4 0.0
01/04:30am 23.6 27.3 21.5 88 1.4 E 4 11 2 6 1012.2 1012.0 0.0
01/04:00am 22.6 26.7 20.7 89 1.2 CALM 0 0 0 0 1011.8 1011.6 0.0
01/03:30am 22.8 26.8 20.5 87 1.5 CALM 0 0 0 0 1011.8 1011.6 0.0
01/03:00am 23.9 28.3 21.4 86 1.7 CALM 0 0 0 0 1011.8 1011.6 0.0
01/02:30am 23.8 27.6 20.9 84 1.9 ESE 2 7 1 4 1012.0 1011.8 0.0
01/02:00am 24.0 28.3 21.1 84 1.9 CALM 0 0 0 0 1011.7 1011.5 0.0
01/01:30am 24.0 28.3 21.1 84 1.9 CALM 0 0 0 0 1011.6 1011.4 0.0
01/01:00am 24.3 28.6 21.2 83 2.0 CALM 0 0 0 0 1011.6 1011.4 0.0
01/12:30am 24.5 29.0 21.6 84 1.9 CALM 0 0 0 0 1011.9 1011.7 0.0
01/12:00am 24.1 28.0 21.2 84 1.9 W 2 6 1 3 1012.1 1011.9 0.0
 
Date/Time
CST
Temp
°C
App
Temp
°C
Dew
Point
Rel
Hum
%
Delta-T
°C
Wind Press
QNH
hPa
Press
MSL
hPa
Rain
since 9 am
mm
Dir
 
Spd
km/h
Gust
km/h
Spd
kts
Gust
kts
30/11:30pm 24.5 28.8 21.2 82 2.2 CALM 0 0 0 0 1012.4 1012.2 0.0
30/11:00pm 24.7 27.8 21.0 80 2.4 W 6 7 3 4 1012.4 1012.2 0.0
30/10:30pm 25.3 28.7 22.0 82 2.2 NW 7 9 4 5 1012.6 1012.4 0.0
30/10:00pm 25.4 28.7 21.5 79 2.6 W 6 7 3 4 1012.7 1012.5 0.0
30/09:30pm 26.1 30.3 21.7 77 2.9 NW 2 7 1 4 1012.7 1012.5 0.0
30/09:00pm 26.1 29.5 21.7 77 2.9 NW 6 7 3 4 1012.5 1012.3 0.0
30/08:30pm 26.0 30.2 21.7 77 2.9 W 2 6 1 3 1012.3 1012.1 0.0
30/08:00pm 26.4 30.2 21.6 75 3.2 WSW 4 7 2 4 1012.2 1012.0 0.0
30/07:30pm 26.7 29.9 21.7 74 3.3 WNW 7 11 4 6 1011.8 1011.6 0.0
30/07:00pm 27.2 29.4 21.2 69 4.0 W 11 19 6 10 1011.2 1011.0 0.0
30/06:30pm 28.0 29.8 20.3 63 5.1 W 11 17 6 9 1010.9 1010.7 0.0
30/06:00pm 29.2 30.9 20.1 58 6.0 WNW 11 17 6 9 1010.4 1010.2 0.0
30/05:30pm 29.6 30.9 20.2 57 6.2 W 13 20 7 11 1010.1 1009.9 0.0
30/05:00pm 29.9 30.8 19.3 53 6.9 WNW 13 24 7 13 1009.9 1009.7 0.0
30/04:30pm 30.5 31.0 20.1 53 6.9 NW 17 24 9 13 1010.0 1009.8 0.0
30/04:00pm 30.1 30.3 20.1 55 6.6 W 19 28 10 15 1010.3 1010.1 0.0
30/03:30pm 30.6 30.5 19.6 51 7.2 WNW 19 26 10 14 1010.4 1010.2 0.0
30/03:00pm 30.6 30.1 18.7 49 7.7 NW 19 28 10 15 1010.7 1010.5 0.0
30/02:30pm 30.5 30.0 19.2 51 7.4 W 20 32 11 17 1011.2 1011.0 0.0
30/02:00pm 31.2 30.7 19.2 48 7.8 NW 20 28 11 15 1011.6 1011.4 0.0
30/01:30pm 31.0 31.5 20.0 52 7.3 WNW 17 26 9 14 1012.1 1011.9 0.0
30/01:00pm 30.8 31.3 20.1 53 7.1 NW 17 28 9 15 1012.6 1012.4 0.0
30/12:30pm 30.4 31.0 20.3 54 6.7 NW 17 28 9 15 1012.9 1012.7 0.0
30/12:00pm 30.9 31.3 19.9 52 7.2 NNW 17 24 9 13 1013.3 1013.1 0.0
30/11:30am 30.8 31.3 20.1 53 7.1 N 17 26 9 14 1013.8 1013.6 0.0
30/11:00am 31.3 32.1 19.9 50 7.5 N 15 24 8 13 1014.2 1014.0 0.0
30/10:30am 29.9 29.9 19.0 52 7.1 N 17 26 9 14 1014.5 1014.3 0.0
30/10:00am 29.3 30.4 20.5 59 5.8 N 15 22 8 12 1014.6 1014.4 0.0
30/09:30am 28.4 30.6 21.2 65 4.8 NNE 11 19 6 10 1014.6 1014.4 0.0
30/09:00am 27.5 29.7 21.1 68 4.2 N 11 15 6 8 1014.7 1014.5 0.0
30/08:30am 26.7 29.6 21.0 71 3.8 NE 7 13 4 7 1014.6 1014.4 0.0
30/08:00am 25.0 27.5 21.1 79 2.6 ENE 9 11 5 6 1014.4 1014.2 0.0
30/07:30am 23.7 28.0 21.2 86 1.6 CALM 0 0 0 0 1013.9 1013.7 0.0
30/07:00am 21.8 25.7 20.3 91 1.0 CALM 0 0 0 0 1013.6 1013.4 0.0
30/06:30am 22.4 25.2 20.5 89 1.2 E 6 9 3 5 1013.3 1013.1 0.0
30/06:00am 22.4 24.8 20.9 91 1.0 E 9 13 5 7 1013.1 1012.9 0.0
30/05:30am 22.5 25.0 21.0 91 1.0 E 9 11 5 6 1012.7 1012.5 0.0
30/05:00am 22.8 26.5 21.4 92 0.9 E 4 11 2 6 1012.1 1011.9 0.0
30/04:30am 22.9 26.1 21.2 90 1.1 SSE 6 7 3 4 1011.5 1011.3 0.0
30/04:00am 22.8 26.1 21.4 92 0.9 S 6 7 3 4 1011.3 1011.1 0.0
30/03:30am 21.4 23.6 19.7 90 1.1 WSW 7 7 4 4 1010.9 1010.7 0.0
30/03:00am 22.1 25.0 20.7 92 0.9 W 6 7 3 4 1010.9 1010.7 0.0
30/02:30am 21.5 23.9 19.6 89 1.2 SW 6 7 3 4 1010.9 1010.7 0.0
30/02:00am 21.7 24.8 19.6 88 1.3 WSW 2 7 1 4 1010.9 1010.7 0.0
30/01:30am 22.1 25.6 19.5 85 1.7 CALM 0 0 0 0 1011.3 1011.1 0.0
30/01:00am 22.7 26.5 20.2 86 1.6 CALM 0 0 0 0 1011.7 1011.5 0.0
30/12:30am 22.5 26.0 19.5 83 1.9 CALM 0 0 0 0 1011.9 1011.7 0.0
30/12:00am 23.6 27.0 19.3 77 2.7 CALM 0 0 0 0 1012.2 1012.0 0.0
 
Date/Time
CST
Temp
°C
App
Temp
°C
Dew
Point
Rel
Hum
%
Delta-T
°C
Wind Press
QNH
hPa
Press
MSL
hPa
Rain
since 9 am
mm
Dir
 
Spd
km/h
Gust
km/h
Spd
kts
Gust
kts
29/11:30pm 23.9 27.5 19.8 78 2.6 CALM 0 0 0 0 1012.3 1012.1 0.0
29/11:00pm 24.2 28.1 20.3 79 2.5 CALM 0 0 0 0 1012.5 1012.3 0.0
29/10:30pm 24.4 28.2 20.1 77 2.8 CALM 0 0 0 0 1012.4 1012.2 0.0
29/10:00pm 24.9 28.7 20.2 75 3.1 CALM 0 0 0 0 1012.4 1012.2 0.0
29/09:30pm 25.0 28.9 20.3 75 3.1 CALM 0 0 0 0 1012.2 1012.0 0.0
29/09:00pm 25.3 28.4 20.3 74 3.3 WSW 4 7 2 4 1011.9 1011.7 0.0
29/08:30pm 25.7 29.4 20.0 71 3.7 CALM 0 0 0 0 1011.5 1011.3 0.0
29/08:00pm 26.4 29.9 20.3 69 4.0 W 2 7 1 4 1011.3 1011.1 0.0
29/07:30pm 26.8 29.3 19.9 66 4.5 W 6 9 3 5 1011.0 1010.8 0.0
29/07:00pm 27.4 29.2 19.5 62 5.1 WNW 9 17 5 9 1010.7 1010.5 0.0
29/06:30pm 28.1 28.9 19.1 58 5.8 NW 13 19 7 10 1010.6 1010.4 0.0
29/06:00pm 29.1 29.4 18.8 53 6.7 NW 15 22 8 12 1010.3 1010.1 0.0
29/05:30pm 29.8 29.6 18.6 51 7.2 NW 17 28 9 15 1009.9 1009.7 0.0
29/05:00pm 30.3 30.6 18.7 50 7.5 NW 15 22 8 12 1009.7 1009.5 0.0
29/04:30pm 30.5 30.8 19.5 51 7.2 W 17 22 9 12 1009.6 1009.4 0.0
29/04:00pm 30.8 30.2 18.5 47 7.9 NW 19 28 10 15 1009.9 1009.7 0.0
29/03:30pm 30.9 30.9 18.9 48 7.8 NW 17 26 9 14 1010.1 1009.9 0.0
29/03:00pm 31.5 30.7 18.5 46 8.4 NW 20 32 11 17 1010.3 1010.1 0.0
29/02:30pm 30.7 29.8 19.1 50 7.6 NW 22 33 12 18 1010.8 1010.6 0.0
29/02:00pm 30.9 30.6 19.6 51 7.4 NW 20 32 11 17 1011.3 1011.1 0.0
29/01:30pm 32.0 31.1 17.8 42 9.1 NNW 19 32 10 17 1011.7 1011.5 0.0
29/01:00pm 32.3 30.5 17.0 40 9.7 N 22 32 12 17 1012.0 1011.8 0.0
29/12:30pm 31.6 30.6 19.6 49 7.9 N 24 33 13 18 1012.4 1012.2 0.0
29/12:00pm 30.8 30.3 20.7 55 6.7 NNW 24 33 13 18 1012.7 1012.5 0.0
29/11:30am 30.8 31.2 21.0 56 6.6 NNW 20 32 11 17 1013.3 1013.1 0.0
29/11:00am 30.3 30.5 20.2 54 6.7 N 19 30 10 16 1013.6 1013.4 0.0
29/10:30am 29.3 29.5 20.5 59 5.8 N 20 26 11 14 1013.7 1013.5 0.0
29/10:00am 29.2 31.6 22.2 66 4.7 NNW 13 20 7 11 1013.6 1013.4 0.0
29/09:30am 27.9 28.9 21.7 69 4.2 N 19 26 10 14 1013.7 1013.5 0.0
29/09:00am 27.0 29.7 22.2 75 3.2 N 11 15 6 8 1013.6 1013.4 0.0
29/08:30am 25.9 29.2 22.6 82 2.2 NE 9 13 5 7 1013.5 1013.3 0.0
29/08:00am 24.3 27.8 22.9 92 0.9 E 9 15 5 8 1013.3 1013.1 0.0
29/07:30am 22.3 25.5 21.6 96 0.5 ENE 7 9 4 5 1012.9 1012.7 0.0
29/07:00am 22.2 25.9 21.4 95 0.5 E 4 7 2 4 1012.2 1012.0 0.0
29/06:30am 22.1 25.1 21.3 95 0.5 E 7 11 4 6 1012.0 1011.8 0.0
29/06:00am 22.1 25.0 21.1 94 0.7 E 7 11 4 6 1011.8 1011.6 0.0
29/05:30am 22.2 25.5 21.4 95 0.5 ESE 6 7 3 4 1011.4 1011.2 0.0
29/05:00am 21.4 23.4 20.7 96 0.5 ENE 11 20 6 11 1011.0 1010.8 0.0
29/04:30am 20.1 22.1 18.8 92 0.8 SW 6 7 3 4 1010.3 1010.1 0.0
29/04:00am 20.3 23.4 18.6 90 1.1 CALM 0 7 0 4 1010.2 1010.0 0.0
29/03:30am 22.1 25.4 20.7 92 0.9 ESE 4 9 2 5 1010.3 1010.1 0.0
29/03:00am 21.6 24.8 19.7 89 1.2 ESE 2 7 1 4 1010.0 1009.8 0.0
29/02:30am 21.5 25.4 20.3 93 0.8 CALM 0 0 0 0 1010.2 1010.0 0.0
29/02:00am 20.9 23.6 18.7 87 1.4 ESE 2 7 1 4 1010.3 1010.1 0.0
29/01:30am 21.2 24.8 19.7 91 1.0 CALM 0 0 0 0 1010.5 1010.3 0.0
29/01:00am 21.9 25.7 20.2 90 1.1 CALM 0 6 0 3 1010.8 1010.6 0.0
29/12:30am 22.2 25.9 19.9 87 1.5 CALM 0 0 0 0 1010.9 1010.7 0.0
29/12:00am 22.9 26.4 20.4 86 1.6 E 2 7 1 4 1011.2 1011.0 0.0
 
Date/Time
CST
Temp
°C
App
Temp
°C
Dew
Point
Rel
Hum
%
Delta-T
°C
Wind Press
QNH
hPa
Press
MSL
hPa
Rain
since 9 am
mm
Dir
 
Spd
km/h
Gust
km/h
Spd
kts
Gust
kts
28/11:30pm 23.3 27.8 21.6 90 1.1 CALM 0 0 0 0 1011.1 1010.9 0.0
28/11:00pm 22.9 25.5 20.1 84 1.8 S 6 7 3 4 1011.3 1011.1 0.0
28/10:30pm 23.8 28.1 21.1 85 1.8 CALM 0 0 0 0 1011.2 1011.0 0.0
28/10:00pm 23.5 27.5 20.6 84 1.9 CALM 0 0 0 0 1011.2 1011.0 0.0
28/09:30pm 24.5 28.4 21.8 85 1.8 SSW 4 6 2 3 1011.0 1010.8 0.0
28/09:00pm 24.5 28.3 21.0 81 2.3 WSW 2 7 1 4 1010.5 1010.3 0.0
28/08:30pm 25.3 28.6 21.4 79 2.6 W 6 7 3 4 1010.3 1010.1 0.0
28/08:00pm 26.4 29.7 21.8 76 3.1 NNW 7 11 4 6 1010.1 1009.9 0.0
28/07:30pm 26.8 30.1 21.8 74 3.3 NNW 7 11 4 6 1009.9 1009.7 0.0
28/07:00pm 27.2 29.7 21.7 72 3.7 NW 11 17 6 9 1009.5 1009.3 0.0
28/06:30pm 28.0 30.2 21.1 66 4.6 NW 11 17 6 9 1009.3 1009.1 0.0
28/06:00pm 28.9 29.8 20.1 59 5.8 NNW 15 20 8 11 1009.2 1009.0 0.0

Other Formats:

Comma delimited format used in spreadsheet applications
http://www.bom.gov.au/fwo/IDD60801/IDD60801.95111.axf

JavaScript Object Notation format (JSON) in row-major order
http://www.bom.gov.au/fwo/IDD60801/IDD60801.95111.json